Time;durP1;ratioP1;P1;durP2;ratioP2;P2;SDS_P1;SDS_P2;PMS_P1;PMS_P2;Temp;Humidity;BMP_temperature;BMP_pressure;BME280_temperature;BME280_humidity;BME280_pressure;Samples;Min_cycle;Max_cycle;Signal;HPM_P1;HPM_P2
2022/11/18 00:01:47;;;;;;;9.27;2.22;;;12.00;99.90;;;;;;4985973;28;20507;-81
2022/11/18 00:04:15;;;;;;;9.40;2.10;;;12.00;99.90;;;;;;4955359;28;20777;-81
2022/11/18 00:06:42;;;;;;;5.75;1.90;;;12.00;99.90;;;;;;4955514;28;20057;-81
2022/11/18 00:09:09;;;;;;;6.55;1.95;;;12.10;99.90;;;;;;4990110;23;20043;-84
2022/11/18 00:14:22;;;;;;;5.45;1.70;;;12.10;99.90;;;;;;4991980;28;20050;-84
2022/11/18 00:16:52;;;;;;;9.48;2.10;;;12.10;99.90;;;;;;4989562;28;20065;-85
2022/11/18 00:19:21;;;;;;;7.43;2.13;;;12.10;99.90;;;;;;4991964;28;20050;-85
2022/11/18 00:21:49;;;;;;;11.73;2.15;;;12.00;99.90;;;;;;4991847;28;20289;-85
2022/11/18 00:24:16;;;;;;;8.20;2.10;;;12.10;99.90;;;;;;4992196;28;20057;-84
2022/11/18 00:26:43;;;;;;;5.68;1.88;;;12.10;99.90;;;;;;4990681;28;20054;-84
2022/11/18 00:29:10;;;;;;;7.18;2.47;;;12.10;99.90;;;;;;4991404;28;20581;-85
2022/11/18 00:31:38;;;;;;;8.85;2.20;;;12.10;99.90;;;;;;4991938;28;20090;-85
2022/11/18 00:34:05;;;;;;;4.45;1.80;;;12.10;99.90;;;;;;4991885;28;20409;-85
2022/11/18 00:36:33;;;;;;;6.75;2.22;;;12.10;99.90;;;;;;4989992;28;20113;-85
2022/11/18 00:39:00;;;;;;;7.22;1.90;;;12.10;99.90;;;;;;4990816;28;20078;-85
2022/11/18 00:42:49;;;;;;;8.70;2.50;;;12.10;99.90;;;;;;4991892;28;20058;-84
2022/11/18 00:44:14;;;;;;;7.85;3.03;;;12.10;99.90;;;;;;4991777;28;20049;-84
2022/11/18 00:46:41;;;;;;;7.05;3.08;;;12.10;99.90;;;;;;4988282;28;20093;-84
2022/11/18 00:49:08;;;;;;;9.32;2.78;;;12.10;99.90;;;;;;4990601;28;20073;-84
2022/11/18 00:51:36;;;;;;;8.77;3.33;;;12.10;99.90;;;;;;4991592;28;20046;-84
2022/11/18 00:54:03;;;;;;;8.48;3.08;;;12.10;99.90;;;;;;4990246;28;20042;-84
2022/11/18 00:56:30;;;;;;;9.55;3.45;;;12.10;99.90;;;;;;4990288;28;20061;-84
2022/11/18 00:58:57;;;;;;;11.65;3.80;;;12.10;99.90;;;;;;4990723;28;20443;-84
2022/11/18 01:01:24;;;;;;;9.85;3.45;;;12.10;99.90;;;;;;4990916;28;20042;-85
2022/11/18 01:03:51;;;;;;;6.50;2.97;;;12.10;99.90;;;;;;4973056;28;20692;-84
2022/11/18 01:06:18;;;;;;;6.75;2.97;;;12.10;99.90;;;;;;4990352;28;20061;-85
2022/11/18 01:08:46;;;;;;;8.00;2.83;;;12.10;99.90;;;;;;4990817;28;20049;-85
2022/11/18 01:13:57;;;;;;;8.85;2.88;;;12.10;99.90;;;;;;4972635;28;20046;-84
2022/11/18 01:16:26;;;;;;;5.88;2.45;;;12.10;99.90;;;;;;4990216;28;20050;-85
2022/11/18 01:18:53;;;;;;;9.93;2.70;;;12.10;99.90;;;;;;4990239;28;20057;-84
2022/11/18 01:21:20;;;;;;;9.20;2.63;;;12.10;99.90;;;;;;4990481;28;20047;-85
2022/11/18 01:23:49;;;;;;;6.18;2.20;;;12.20;99.90;;;;;;4990125;28;20050;-85
2022/11/18 01:26:17;;;;;;;10.25;2.13;;;12.10;99.90;;;;;;4988952;28;20053;-85
2022/11/18 01:28:44;;;;;;;8.93;2.17;;;12.10;99.90;;;;;;4991073;28;20742;-85
2022/11/18 01:31:14;;;;;;;6.88;1.85;;;12.20;99.90;;;;;;4991170;28;20042;-85
2022/11/18 01:33:41;;;;;;;8.88;2.15;;;12.10;99.90;;;;;;4990280;28;20049;-84
2022/11/18 01:36:15;;;;;;;7.50;2.15;;;12.20;99.90;;;;;;4989410;28;20490;-85
2022/11/18 01:38:42;;;;;;;5.50;2.03;;;12.20;99.90;;;;;;4990128;28;20108;-84
2022/11/18 01:41:11;;;;;;;9.45;2.50;;;12.10;99.90;;;;;;4973280;28;20042;-85
2022/11/18 01:43:53;;;;;;;6.60;2.10;;;12.10;99.90;;;;;;4990623;28;20047;-84
2022/11/18 01:46:20;;;;;;;7.18;2.22;;;12.10;99.90;;;;;;4988992;28;20046;-85
2022/11/18 01:48:49;;;;;;;6.03;2.22;;;12.10;99.90;;;;;;4989582;28;20141;-84
2022/11/18 01:51:18;;;;;;;6.45;2.00;;;12.10;99.90;;;;;;4988326;28;20042;-84
2022/11/18 01:53:47;;;;;;;5.35;2.15;;;12.10;99.90;;;;;;4989720;28;20050;-85
2022/11/18 01:56:17;;;;;;;5.75;2.08;;;12.10;99.90;;;;;;4988230;28;20051;-84
2022/11/18 01:58:47;;;;;;;6.85;2.42;;;12.10;99.90;;;;;;4990109;28;20046;-84
2022/11/18 02:01:14;;;;;;;7.03;2.00;;;12.00;99.90;;;;;;4972090;28;20050;-85
2022/11/18 02:03:42;;;;;;;7.22;2.40;;;12.10;99.90;;;;;;4972100;28;20331;-85
2022/11/18 02:06:10;;;;;;;7.00;2.22;;;12.00;99.90;;;;;;4988316;28;20042;-84
2022/11/18 02:08:38;;;;;;;8.32;2.05;;;11.90;99.90;;;;;;4989707;28;20061;-84
2022/11/18 02:13:56;;;;;;;6.50;2.22;;;11.90;99.90;;;;;;4988337;28;20058;-84
2022/11/18 02:16:29;;;;;;;5.65;2.10;;;12.00;99.90;;;;;;4987896;28;20046;-85
2022/11/18 02:19:00;;;;;;;7.22;2.33;;;11.90;99.90;;;;;;4989319;28;20141;-84
2022/11/18 02:21:34;;;;;;;8.75;2.45;;;11.90;99.90;;;;;;4983716;28;20129;-85
2022/11/18 02:24:27;;;;;;;6.75;2.20;;;11.90;99.90;;;;;;4972493;28;20094;-84
2022/11/18 02:27:14;;;;;;;6.47;1.98;;;11.90;99.90;;;;;;4985259;28;20141;-84
2022/11/18 02:29:44;;;;;;;6.07;1.98;;;11.80;99.90;;;;;;4984105;28;20498;-84
2022/11/18 02:32:14;;;;;;;5.57;2.15;;;11.80;99.90;;;;;;4989703;28;20414;-84
2022/11/18 02:34:45;;;;;;;6.03;2.33;;;11.80;99.90;;;;;;4971315;28;20061;-85
2022/11/18 02:37:16;;;;;;;10.13;2.35;;;11.80;99.90;;;;;;4987839;28;20050;-85
2022/11/18 02:39:47;;;;;;;8.32;2.17;;;11.80;99.90;;;;;;4988889;28;20110;-85
2022/11/18 02:42:14;;;;;;;;;;;11.70;99.90;;;;;;4972510;28;20054;-85
2022/11/18 02:44:45;;;;;;;9.50;2.78;;;11.70;99.90;;;;;;4988704;28;19930;-85
2022/11/18 02:47:15;;;;;;;10.18;2.60;;;11.70;99.90;;;;;;4987772;28;20129;-84
2022/11/18 02:49:44;;;;;;;8.57;2.90;;;11.80;99.90;;;;;;4989457;28;20053;-84
2022/11/18 02:52:12;;;;;;;12.27;3.28;;;11.80;99.90;;;;;;4989187;28;20042;-85
2022/11/18 02:54:40;;;;;;;9.13;2.72;;;11.70;99.90;;;;;;4988613;28;20740;-84
2022/11/18 02:57:08;;;;;;;9.20;2.45;;;11.70;99.90;;;;;;4988626;28;20042;-84
2022/11/18 02:59:35;;;;;;;10.18;2.33;;;11.70;99.90;;;;;;4989623;28;20054;-84
2022/11/18 03:02:04;;;;;;;6.88;2.33;;;11.70;99.90;;;;;;4989422;28;20101;-85
2022/11/18 03:04:31;;;;;;;7.30;2.63;;;11.80;99.90;;;;;;4956735;28;20420;-84
2022/11/18 03:07:06;;;;;;;9.82;3.05;;;11.80;99.90;;;;;;4989028;28;20503;-85
2022/11/18 03:09:35;;;;;;;6.25;2.90;;;11.80;99.90;;;;;;4983292;28;20105;-84
2022/11/18 03:12:09;;;;;;;10.75;2.83;;;11.80;99.90;;;;;;4996121;28;20520;-84
2022/11/18 03:14:40;;;;;;;8.20;2.80;;;11.80;99.90;;;;;;4983683;28;20038;-84
2022/11/18 03:17:12;;;;;;;6.80;2.40;;;11.80;99.90;;;;;;4979234;28;20054;-85
2022/11/18 03:19:53;;;;;;;10.38;3.13;;;11.80;99.90;;;;;;4994622;28;20053;-84
2022/11/18 03:22:24;;;;;;;10.00;2.90;;;11.80;99.90;;;;;;4992488;28;20042;-85
2022/11/18 03:24:55;;;;;;;7.10;2.43;;;11.80;99.90;;;;;;4994167;28;20046;-85
2022/11/18 03:27:26;;;;;;;6.95;2.42;;;11.80;99.90;;;;;;4991935;28;20309;-84
2022/11/18 03:29:56;;;;;;;7.65;2.83;;;11.80;99.90;;;;;;4993324;28;20061;-84
2022/11/18 03:32:27;;;;;;;7.90;2.45;;;11.80;99.90;;;;;;4992354;28;20042;-85
2022/11/18 03:34:58;;;;;;;6.80;2.37;;;11.80;99.90;;;;;;4993366;28;20134;-84
2022/11/18 03:37:26;;;;;;;8.45;2.50;;;11.80;99.90;;;;;;4990789;28;20311;-84
2022/11/18 03:39:56;;;;;;;8.18;2.53;;;11.80;99.90;;;;;;4975327;28;20046;-85
2022/11/18 03:42:25;;;;;;;7.20;2.90;;;11.80;99.90;;;;;;4992211;28;20038;-84
2022/11/18 03:44:56;;;;;;;8.05;2.80;;;11.80;99.90;;;;;;4992169;28;20155;-85
2022/11/18 03:47:26;;;;;;;;;;;11.80;99.90;;;;;;4985074;28;20046;-84
2022/11/18 03:49:55;;;;;;;5.45;2.45;;;11.80;99.90;;;;;;4992850;28;19926;-84
2022/11/18 03:52:26;;;;;;;7.63;2.60;;;11.80;99.90;;;;;;4992031;28;20149;-85
2022/11/18 03:54:53;;;;;;;;;;;11.80;99.90;;;;;;4975677;28;20605;-84
2022/11/18 03:57:23;;;;;;;11.77;3.00;;;11.90;99.90;;;;;;4991320;28;19930;-84
2022/11/18 03:59:53;;;;;;;8.60;2.70;;;11.80;99.90;;;;;;4992778;28;20160;-84
2022/11/18 04:02:21;;;;;;;6.80;2.78;;;11.80;99.90;;;;;;4990440;28;20039;-84
2022/11/18 04:04:51;;;;;;;7.53;2.90;;;11.90;99.90;;;;;;4992516;28;20046;-84
2022/11/18 04:07:22;;;;;;;7.45;2.97;;;11.90;99.90;;;;;;4990937;28;20046;-84
2022/11/18 04:09:55;;;;;;;6.80;2.88;;;11.80;99.90;;;;;;4974892;28;20046;-84
2022/11/18 04:12:24;;;;;;;6.15;2.67;;;11.90;99.90;;;;;;4992076;28;20053;-84
2022/11/18 04:14:54;;;;;;;7.68;2.78;;;11.90;99.90;;;;;;4992176;28;20061;-84
2022/11/18 04:17:22;;;;;;;11.32;3.30;;;11.90;99.90;;;;;;4990638;28;20069;-84
2022/11/18 04:19:50;;;;;;;6.47;2.92;;;11.80;99.90;;;;;;4974755;28;20052;-84
2022/11/18 04:22:18;;;;;;;5.70;2.28;;;11.80;99.90;;;;;;4991922;28;20039;-84
2022/11/18 04:24:46;;;;;;;7.43;3.00;;;11.80;99.90;;;;;;4992351;28;20561;-84
2022/11/18 04:27:13;;;;;;;12.25;2.83;;;11.80;99.90;;;;;;4990800;28;20426;-84
2022/11/18 04:29:40;;;;;;;8.20;2.53;;;11.80;99.90;;;;;;4991932;28;20042;-84
2022/11/18 04:32:07;;;;;;;8.90;2.85;;;11.80;99.90;;;;;;4974528;28;20046;-84
2022/11/18 04:34:34;;;;;;;7.22;2.83;;;11.80;99.90;;;;;;4991276;28;20887;-84
2022/11/18 04:37:02;;;;;;;8.73;2.90;;;11.80;99.90;;;;;;4991336;28;20065;-84
2022/11/18 04:39:29;;;;;;;7.20;2.30;;;11.80;99.90;;;;;;4984520;28;20038;-84
2022/11/18 04:41:56;;;;;;;6.32;2.03;;;11.80;99.90;;;;;;4991483;28;20049;-84
2022/11/18 04:44:23;;;;;;;6.07;2.55;;;11.80;99.90;;;;;;4991237;28;20052;-84
2022/11/18 04:46:51;;;;;;;6.18;2.50;;;11.80;99.90;;;;;;4991582;28;20499;-85
2022/11/18 04:49:18;;;;;;;12.23;3.22;;;11.90;99.90;;;;;;4990946;28;20057;-84
2022/11/18 04:51:45;;;;;;;11.35;3.15;;;11.80;99.90;;;;;;4991668;28;20494;-85
2022/11/18 04:54:15;;;;;;;9.07;2.75;;;11.90;99.90;;;;;;4989808;28;20049;-84
2022/11/18 04:56:42;;;;;;;8.35;2.67;;;11.90;99.90;;;;;;4991732;28;20053;-84
2022/11/18 04:59:10;;;;;;;7.53;2.50;;;11.90;99.90;;;;;;4991649;28;20096;-84
2022/11/18 05:01:37;;;;;;;8.60;2.90;;;11.80;99.90;;;;;;4991415;28;20043;-84
2022/11/18 05:04:04;;;;;;;6.63;2.25;;;11.80;99.90;;;;;;4990102;28;20042;-84
2022/11/18 05:06:32;;;;;;;6.95;2.53;;;11.80;99.90;;;;;;4991426;28;20042;-84
2022/11/18 05:08:59;;;;;;;8.23;2.58;;;11.80;99.90;;;;;;4990598;28;20052;-85
2022/11/18 05:14:13;;;;;;;8.63;2.50;;;11.70;99.90;;;;;;4988837;28;20841;-84
2022/11/18 05:16:39;;;;;;;6.35;2.75;;;11.70;99.90;;;;;;4990396;28;20069;-84
2022/11/18 05:19:07;;;;;;;9.07;2.47;;;11.70;99.90;;;;;;4991105;28;20050;-84
2022/11/18 05:21:34;;;;;;;9.32;2.72;;;11.70;99.90;;;;;;4990835;28;20042;-84
2022/11/18 05:24:01;;;;;;;7.70;3.00;;;11.70;99.90;;;;;;4989351;28;20039;-84
2022/11/18 05:26:29;;;;;;;7.65;2.55;;;11.70;99.90;;;;;;4973494;28;20541;-84
2022/11/18 05:28:56;;;;;;;7.70;3.25;;;11.70;99.90;;;;;;4991009;28;20505;-84
2022/11/18 05:31:23;;;;;;;7.25;2.55;;;11.80;99.90;;;;;;4991101;28;20049;-84
2022/11/18 05:33:50;;;;;;;9.30;2.80;;;11.70;99.90;;;;;;4988791;28;20039;-84
2022/11/18 05:36:19;;;;;;;6.07;2.38;;;11.70;99.90;;;;;;4990719;28;20047;-84
2022/11/18 05:38:46;;;;;;;9.50;2.83;;;11.70;99.90;;;;;;4991057;28;20046;-84
2022/11/18 05:43:09;;;;;;;6.90;2.90;;;11.70;99.90;;;;;;4990867;28;20046;-85
2022/11/18 05:44:01;;;;;;;11.85;3.20;;;11.70;99.90;;;;;;4971187;28;20049;-84
2022/11/18 05:46:28;;;;;;;10.30;3.17;;;11.70;99.90;;;;;;4990771;28;20506;-85
2022/11/18 05:48:55;;;;;;;8.27;2.83;;;11.70;99.90;;;;;;4990544;28;20061;-85
2022/11/18 05:51:22;;;;;;;9.10;2.70;;;11.70;99.90;;;;;;4991018;28;20042;-83
2022/11/18 05:53:51;;;;;;;4.90;2.58;;;11.70;99.90;;;;;;4988643;28;20049;-85
2022/11/18 05:56:22;;;;;;;4.40;2.60;;;11.70;99.90;;;;;;4990276;28;20053;-80
2022/11/18 05:58:48;;;;;;;5.25;2.53;;;11.70;99.90;;;;;;4989609;28;20050;-79
2022/11/18 06:01:21;;;;;;;5.82;2.40;;;11.70;99.90;;;;;;4990140;28;20046;-80
2022/11/18 06:03:48;;;;;;;9.70;3.17;;;11.70;99.90;;;;;;4988684;28;20105;-79
2022/11/18 06:06:17;;;;;;;8.20;3.83;;;11.70;99.90;;;;;;4990141;28;20125;-79
2022/11/18 06:08:48;;;;;;;10.32;4.85;;;11.70;99.90;;;;;;4990387;28;20046;-79
2022/11/18 06:11:16;;;;;;;7.93;4.20;;;11.70;99.90;;;;;;4990270;28;20061;-80
2022/11/18 06:13:49;;;;;;;8.50;4.70;;;11.60;99.90;;;;;;4987615;28;20043;-80
2022/11/18 06:16:19;;;;;;;8.45;4.63;;;11.60;99.90;;;;;;4990140;28;20111;-80
2022/11/18 06:18:46;;;;;;;10.02;4.38;;;11.60;99.90;;;;;;4990175;28;20052;-80
2022/11/18 06:21:13;;;;;;;8.55;4.57;;;11.60;99.90;;;;;;4990169;28;20052;-80
2022/11/18 06:23:41;;;;;;;9.43;4.50;;;11.60;99.90;;;;;;4987934;28;20057;-79
2022/11/18 06:26:10;;;;;;;8.88;3.85;;;11.60;99.90;;;;;;4987741;28;20046;-79
2022/11/18 06:28:38;;;;;;;9.95;4.10;;;11.80;99.90;;;;;;4990040;28;20053;-79
2022/11/18 06:31:05;;;;;;;10.88;3.67;;;11.60;99.90;;;;;;4988864;28;20053;-80
2022/11/18 06:33:33;;;;;;;9.57;4.15;;;11.60;99.90;;;;;;4988478;28;20061;-80
2022/11/18 06:36:00;;;;;;;8.35;3.70;;;11.60;99.90;;;;;;4987725;28;20054;-80
2022/11/18 06:38:27;;;;;;;10.68;3.38;;;11.60;99.90;;;;;;4987367;28;20075;-79
2022/11/18 06:40:56;;;;;;;11.93;3.30;;;11.60;99.90;;;;;;4987429;28;20057;-79
2022/11/18 06:43:41;;;;;;;9.88;3.38;;;11.60;99.90;;;;;;4987576;28;20054;-80
2022/11/18 06:48:57;;;;;;;9.90;3.28;;;11.60;99.90;;;;;;4988116;28;20556;-80
2022/11/18 06:51:24;;;;;;;9.88;3.25;;;11.60;99.90;;;;;;4988123;28;20129;-81
2022/11/18 06:53:51;;;;;;;9.90;3.50;;;11.60;99.90;;;;;;4986320;28;20045;-80
2022/11/18 06:58:52;;;;;;;11.32;3.75;;;11.60;99.90;;;;;;4967742;28;20054;-78
2022/11/18 07:01:20;;;;;;;12.20;3.60;;;11.60;99.90;;;;;;4968598;28;20050;-78
2022/11/18 07:03:48;;;;;;;9.75;3.70;;;11.70;99.90;;;;;;4967482;28;20042;-78
2022/11/18 07:06:19;;;;;;;10.98;3.78;;;11.70;99.90;;;;;;4979026;28;20053;-78
2022/11/18 07:08:47;;;;;;;9.13;3.42;;;11.70;99.90;;;;;;4977902;28;20054;-78
2022/11/18 07:11:15;;;;;;;9.23;3.20;;;11.70;99.90;;;;;;4961758;28;20241;-78
2022/11/18 07:13:42;;;;;;;9.23;3.33;;;11.70;99.90;;;;;;4977342;28;20523;-78
2022/11/18 07:16:11;;;;;;;8.30;3.55;;;11.70;99.90;;;;;;4981729;28;20121;-79
2022/11/18 07:18:40;;;;;;;9.30;3.35;;;11.70;99.90;;;;;;4989433;28;20072;-78
2022/11/18 07:21:10;;;;;;;10.75;3.33;;;11.70;99.90;;;;;;4984294;28;20042;-79
2022/11/18 07:23:38;;;;;;;10.88;3.08;;;11.70;99.90;;;;;;4952720;28;20047;-78
2022/11/18 07:26:06;;;;;;;9.40;3.72;;;11.70;99.90;;;;;;4983922;28;20047;-78
2022/11/18 07:28:33;;;;;;;10.73;3.63;;;11.70;99.90;;;;;;4974699;28;20047;-78
2022/11/18 07:31:03;;;;;;;10.68;3.22;;;11.70;99.90;;;;;;4967101;28;20054;-78
2022/11/18 07:33:31;;;;;;;10.13;4.00;;;11.70;99.90;;;;;;4973986;28;20049;-79
2022/11/18 07:36:01;;;;;;;9.48;3.30;;;11.70;99.90;;;;;;4982828;28;20154;-78
2022/11/18 07:38:28;;;;;;;8.60;2.97;;;11.70;99.90;;;;;;4958861;28;20514;-78
2022/11/18 07:41:03;;;;;;;9.80;3.40;;;11.70;99.90;;;;;;4978289;28;20419;-78
2022/11/18 07:43:30;;;;;;;9.13;3.67;;;11.70;99.90;;;;;;4966469;28;20036;-78
2022/11/18 07:45:57;;;;;;;7.50;3.50;;;11.70;99.90;;;;;;4970212;28;20050;-77
2022/11/18 07:48:24;;;;;;;9.50;3.90;;;11.80;99.90;;;;;;4969921;28;20061;-77
2022/11/18 07:50:55;;;;;;;8.75;3.78;;;11.80;99.90;;;;;;4968334;28;20771;-77
2022/11/18 07:53:22;;;;;;;7.53;3.72;;;11.80;99.90;;;;;;4978890;28;20507;-78
2022/11/18 07:55:49;;;;;;;10.80;4.07;;;11.80;99.90;;;;;;4969201;28;20064;-78
2022/11/18 07:58:17;;;;;;;8.73;3.40;;;11.80;99.90;;;;;;4973313;28;20047;-78
2022/11/18 08:00:44;;;;;;;10.65;4.00;;;11.90;99.90;;;;;;4973573;28;20053;-78
2022/11/18 08:03:11;;;;;;;14.23;4.28;;;11.90;99.90;;;;;;4975581;28;20045;-78
2022/11/18 08:05:38;;;;;;;10.25;3.53;;;11.80;99.90;;;;;;4986291;28;20410;-78
2022/11/18 08:08:05;;;;;;;13.43;4.07;;;11.90;99.90;;;;;;4982580;28;20043;-77
2022/11/18 08:10:32;;;;;;;8.32;3.70;;;11.90;99.90;;;;;;4978802;28;20066;-77
2022/11/18 08:12:59;;;;;;;10.32;3.92;;;11.90;99.90;;;;;;4975660;28;20035;-78
2022/11/18 08:15:27;;;;;;;8.57;3.70;;;11.90;99.90;;;;;;4968559;28;20046;-77
2022/11/18 08:17:54;;;;;;;10.35;3.17;;;11.90;99.90;;;;;;4972149;28;20049;-77
2022/11/18 08:20:26;;;;;;;9.90;3.22;;;11.90;99.90;;;;;;4976826;28;20805;-77
2022/11/18 08:22:53;;;;;;;9.63;3.28;;;11.90;99.90;;;;;;4974478;28;20578;-77
2022/11/18 08:25:19;;;;;;;6.82;3.58;;;11.90;99.90;;;;;;4982366;28;20049;-77
2022/11/18 08:27:46;;;;;;;8.15;3.28;;;12.00;99.90;;;;;;4977773;28;20054;-77
2022/11/18 08:30:14;;;;;;;9.13;3.47;;;12.00;99.90;;;;;;4978939;28;20061;-77
2022/11/18 08:32:42;;;;;;;11.35;3.80;;;12.00;99.90;;;;;;4960239;28;20055;-77
2022/11/18 08:35:09;;;;;;;10.77;3.85;;;12.00;99.90;;;;;;4970215;28;20047;-78
2022/11/18 08:37:36;;;;;;;9.85;3.92;;;12.10;99.90;;;;;;4969962;28;20038;-78
2022/11/18 08:40:03;;;;;;;8.93;3.78;;;12.10;99.90;;;;;;4977592;28;20126;-78
2022/11/18 08:42:30;;;;;;;9.55;3.83;;;12.10;99.90;;;;;;4975020;28;20050;-77
2022/11/18 08:44:57;;;;;;;7.72;3.30;;;12.10;99.90;;;;;;4976563;28;20049;-77
2022/11/18 08:47:24;;;;;;;9.88;3.72;;;12.20;99.90;;;;;;4978869;28;20056;-77
2022/11/18 08:49:52;;;;;;;7.05;3.60;;;12.20;99.90;;;;;;4968262;28;20423;-78
2022/11/18 08:52:19;;;;;;;15.88;4.30;;;12.20;99.90;;;;;;4981042;28;20053;-77
2022/11/18 08:54:46;;;;;;;9.82;3.55;;;12.20;99.90;;;;;;4974236;28;20042;-77
2022/11/18 08:57:13;;;;;;;9.90;4.45;;;12.20;99.90;;;;;;4977528;28;20120;-78
2022/11/18 08:59:41;;;;;;;7.00;3.35;;;12.20;99.90;;;;;;4983607;28;20144;-78
2022/11/18 09:02:14;;;;;;;14.98;3.60;;;12.30;99.90;;;;;;4980364;28;20046;-78
2022/11/18 09:04:41;;;;;;;9.20;4.18;;;12.30;99.90;;;;;;4983583;28;20042;-78
2022/11/18 09:07:09;;;;;;;13.35;3.78;;;12.30;99.90;;;;;;4970380;28;20052;-78
2022/11/18 09:09:36;;;;;;;9.70;3.70;;;12.30;99.90;;;;;;4967223;28;20057;-78
2022/11/18 09:12:04;;;;;;;9.60;3.78;;;12.30;99.90;;;;;;4971770;28;20169;-78
2022/11/18 09:14:31;;;;;;;13.23;4.00;;;12.30;99.90;;;;;;4987692;28;20038;-78
2022/11/18 09:16:58;;;;;;;8.57;4.32;;;12.30;99.90;;;;;;4969797;28;20050;-78
2022/11/18 09:19:25;;;;;;;12.80;4.05;;;12.40;99.90;;;;;;4973840;28;20047;-79
2022/11/18 09:21:52;;;;;;;8.10;3.80;;;12.40;99.90;;;;;;4960226;28;20046;-79
2022/11/18 09:24:20;;;;;;;12.20;4.00;;;12.40;99.90;;;;;;4965633;28;20054;-79
2022/11/18 09:26:48;;;;;;;9.05;3.78;;;12.40;99.90;;;;;;4968448;28;20515;-79
2022/11/18 09:29:15;;;;;;;11.43;4.28;;;12.40;99.90;;;;;;4985379;28;20046;-79
2022/11/18 09:31:42;;;;;;;11.07;4.13;;;12.40;99.90;;;;;;4958711;28;20062;-79
2022/11/18 09:34:09;;;;;;;7.03;3.42;;;12.40;99.90;;;;;;4970591;28;20046;-81
2022/11/18 09:36:36;;;;;;;9.25;3.50;;;12.50;99.90;;;;;;4975990;28;20517;-82
2022/11/18 09:39:04;;;;;;;10.70;3.67;;;12.50;99.90;;;;;;4967513;28;20043;-82
2022/11/18 09:41:45;;;;;;;10.45;3.85;;;12.50;99.90;;;;;;4979140;28;20065;-82
2022/11/18 09:44:22;;;;;;;16.05;3.92;;;12.50;99.90;;;;;;4971663;28;20081;-82
2022/11/18 09:46:59;;;;;;;7.55;3.33;;;12.50;99.90;;;;;;4986862;28;20050;-82
2022/11/18 09:49:28;;;;;;;9.50;3.80;;;12.50;99.90;;;;;;4975472;28;20064;-82
2022/11/18 09:51:55;;;;;;;12.65;3.70;;;12.60;99.90;;;;;;4990313;28;20050;-82
2022/11/18 09:54:24;;;;;;;10.40;3.28;;;12.60;99.90;;;;;;4981085;28;20143;-82
2022/11/18 09:56:54;;;;;;;10.32;3.25;;;12.60;99.90;;;;;;4985709;28;20056;-82
2022/11/18 09:59:23;;;;;;;8.05;3.55;;;12.50;99.90;;;;;;4971093;28;20042;-82
2022/11/18 10:01:51;;;;;;;12.88;3.70;;;12.60;99.90;;;;;;4978483;28;20134;-82
2022/11/18 10:04:20;;;;;;;9.27;3.25;;;12.60;99.90;;;;;;4974302;28;20074;-82
2022/11/18 10:06:49;;;;;;;9.48;3.47;;;12.70;99.90;;;;;;4979972;28;20133;-82
2022/11/18 10:09:25;;;;;;;12.38;3.28;;;12.60;99.90;;;;;;4973194;28;20038;-83
2022/11/18 10:12:09;;;;;;;9.02;3.50;;;12.60;99.90;;;;;;4970745;28;20046;-82
2022/11/18 10:14:46;;;;;;;9.52;3.22;;;12.60;99.90;;;;;;4959857;28;20356;-82
2022/11/18 10:17:25;;;;;;;8.05;3.42;;;12.60;99.90;;;;;;4959477;28;20049;-82
2022/11/18 10:19:59;;;;;;;11.45;4.07;;;12.60;99.90;;;;;;4982170;28;20875;-82
2022/11/18 10:22:29;;;;;;;11.75;3.20;;;12.70;99.90;;;;;;4969335;28;20047;-82
2022/11/18 10:24:57;;;;;;;9.48;3.55;;;12.70;99.90;;;;;;4970568;28;20039;-82
2022/11/18 10:27:33;;;;;;;6.22;3.15;;;12.70;99.90;;;;;;4973725;28;20049;-82
2022/11/18 10:30:01;;;;;;;8.68;2.67;;;12.70;99.90;;;;;;4985286;28;20116;-82
2022/11/18 10:32:28;;;;;;;8.48;2.90;;;12.70;99.90;;;;;;4969127;28;20295;-82
2022/11/18 10:34:56;;;;;;;10.70;3.33;;;12.70;99.90;;;;;;4970813;28;20046;-82
2022/11/18 10:37:27;;;;;;;10.45;3.00;;;12.70;99.90;;;;;;4973417;28;20045;-82
2022/11/18 10:39:55;;;;;;;12.40;2.90;;;12.70;99.90;;;;;;4976684;28;20050;-82
2022/11/18 10:42:28;;;;;;;10.65;3.17;;;12.70;99.90;;;;;;4969936;28;20065;-82
2022/11/18 10:44:55;;;;;;;7.35;2.78;;;12.70;99.90;;;;;;4953060;28;20098;-82
2022/11/18 10:47:28;;;;;;;12.60;3.40;;;12.70;99.90;;;;;;4969818;28;20101;-82
2022/11/18 10:49:57;;;;;;;10.93;2.78;;;12.70;99.90;;;;;;4970647;28;20058;-82
2022/11/18 10:52:24;;;;;;;9.15;2.80;;;12.80;99.90;;;;;;4958276;28;20043;-81
2022/11/18 10:55:23;;;;;;;12.18;2.85;;;12.80;99.90;;;;;;4968793;28;20800;-81
2022/11/18 10:57:55;;;;;;;11.63;2.70;;;12.80;99.90;;;;;;4971173;28;20062;-82
2022/11/18 11:00:43;;;;;;;10.73;2.90;;;12.80;99.90;;;;;;4969629;28;20046;-82
2022/11/18 11:03:32;;;;;;;15.10;3.65;;;12.90;99.90;;;;;;4969376;28;20125;-80
2022/11/18 11:06:33;;;;;;;10.48;3.10;;;12.90;99.90;;;;;;4960608;28;20062;-84
2022/11/18 11:09:03;;;;;;;6.78;2.85;;;12.90;99.90;;;;;;4974448;28;20459;-83
2022/11/18 11:11:32;;;;;;;12.00;3.33;;;12.90;99.90;;;;;;4971876;28;20897;-82
2022/11/18 11:14:13;;;;;;;15.18;3.20;;;12.80;99.90;;;;;;4963379;28;20049;-83
2022/11/18 11:16:47;;;;;;;15.10;3.53;;;12.90;99.90;;;;;;4967060;28;20051;-83
2022/11/18 11:19:15;;;;;;;9.23;3.33;;;12.90;99.90;;;;;;4981047;28;20078;-83
2022/11/18 11:21:41;;;;;;;9.43;2.92;;;12.90;99.90;;;;;;4971685;28;20065;-83
2022/11/18 11:24:12;;;;;;;10.40;2.88;;;12.90;99.90;;;;;;4970133;28;20447;-83
2022/11/18 11:26:46;;;;;;;11.63;3.10;;;12.90;99.90;;;;;;4969958;28;20523;-83
2022/11/18 11:29:20;;;;;;;7.00;2.72;;;12.90;99.90;;;;;;4980882;28;20297;-83
2022/11/18 11:31:54;;;;;;;10.00;2.88;;;12.90;99.90;;;;;;4989560;28;20055;-83
2022/11/18 11:34:26;;;;;;;12.13;2.85;;;12.90;99.90;;;;;;4993360;28;20052;-83
2022/11/18 11:36:58;;;;;;;11.25;2.88;;;12.90;99.90;;;;;;4992854;28;20042;-83
2022/11/18 11:39:46;;;;;;;9.60;3.40;;;12.90;99.90;;;;;;4985723;28;20050;-83
2022/11/18 11:42:22;;;;;;;9.45;2.80;;;12.90;99.90;;;;;;4992985;28;20056;-83
2022/11/18 11:45:00;;;;;;;11.77;2.97;;;12.90;99.90;;;;;;4993094;28;20069;-83
2022/11/18 11:47:48;;;;;;;9.93;3.25;;;12.90;99.90;;;;;;4989026;28;20065;-83
2022/11/18 11:50:22;;;;;;;16.25;3.80;;;13.00;99.90;;;;;;4974264;28;20054;-83
2022/11/18 11:53:05;;;;;;;9.07;2.80;;;12.90;99.90;;;;;;4973369;28;20088;-83
2022/11/18 11:55:37;;;;;;;11.10;3.40;;;12.90;99.90;;;;;;4973624;28;20435;-83
2022/11/18 11:58:18;;;;;;;9.88;3.10;;;13.00;99.90;;;;;;4974987;28;20518;-83
2022/11/18 12:00:51;;;;;;;12.05;3.00;;;13.00;99.90;;;;;;4989225;28;20574;-83
2022/11/18 12:03:36;;;;;;;16.48;3.15;;;13.00;99.90;;;;;;4964502;28;20130;-83
2022/11/18 12:06:03;;;;;;;9.15;2.90;;;13.00;99.90;;;;;;4964298;28;20046;-82
2022/11/18 12:08:32;;;;;;;12.20;2.75;;;13.00;99.90;;;;;;4974483;28;20495;-82
2022/11/18 12:11:03;;;;;;;13.68;2.55;;;13.00;99.90;;;;;;4955685;28;20475;-82
2022/11/18 12:13:37;;;;;;;12.00;2.50;;;13.00;99.90;;;;;;4972321;28;20047;-81
2022/11/18 12:16:14;;;;;;;11.82;3.00;;;13.00;99.90;;;;;;4973294;28;20061;-81
2022/11/18 12:18:45;;;;;;;10.48;2.58;;;13.00;99.90;;;;;;4978422;28;20133;-81
2022/11/18 12:21:46;;;;;;;12.93;3.50;;;13.00;99.90;;;;;;4992712;28;20816;-82
2022/11/18 12:24:30;;;;;;;7.28;2.72;;;13.00;99.90;;;;;;4974335;28;20105;-81
2022/11/18 12:26:58;;;;;;;8.07;2.60;;;13.00;99.90;;;;;;4953820;28;20448;-81
2022/11/18 12:29:27;;;;;;;8.15;2.53;;;13.00;99.90;;;;;;4989584;28;20060;-81
2022/11/18 12:31:57;;;;;;;8.93;2.55;;;13.00;99.90;;;;;;4977158;28;20082;-81
2022/11/18 12:34:32;;;;;;;9.00;2.60;;;13.00;99.90;;;;;;4972747;28;20047;-81
2022/11/18 12:37:43;;;;;;;14.40;3.25;;;13.00;99.90;;;;;;4959431;28;20515;-81
2022/11/18 12:40:31;;;;;;;7.68;2.40;;;13.00;99.90;;;;;;4990494;28;20046;-81
2022/11/18 12:45:54;;;;;;;9.30;2.53;;;13.00;99.90;;;;;;4938137;28;20428;-81
2022/11/18 12:48:36;;;;;;;10.45;2.60;;;13.00;99.90;;;;;;4976330;28;20043;-81
2022/11/18 12:51:11;;;;;;;14.95;3.03;;;13.10;99.90;;;;;;4983465;28;20410;-81
2022/11/18 12:53:39;;;;;;;12.32;3.10;;;13.00;99.90;;;;;;4972423;28;20042;-81
2022/11/18 12:56:21;;;;;;;11.18;3.33;;;13.10;99.90;;;;;;4970838;28;20084;-82
2022/11/18 12:58:50;;;;;;;13.43;3.13;;;13.10;99.90;;;;;;4985803;23;20141;-84
2022/11/18 13:01:19;;;;;;;14.05;3.53;;;13.10;99.90;;;;;;4954130;28;20050;-84
2022/11/18 13:03:47;;;;;;;12.20;3.47;;;13.20;99.90;;;;;;4971890;28;20058;-85
2022/11/18 13:06:24;;;;;;;13.40;2.70;;;13.20;99.90;;;;;;4972095;28;20420;-84
2022/11/18 13:08:53;;;;;;;10.75;2.60;;;13.20;99.90;;;;;;4955542;28;20055;-84
2022/11/18 13:19:56;;;;;;;9.25;2.45;;;13.30;99.90;;;;;;4952519;29;20054;-88
2022/11/18 13:25:25;;;;;;;7.63;2.20;;;13.30;99.90;;;;;;4966396;28;20043;-84
2022/11/18 13:27:57;;;;;;;6.50;1.80;;;13.30;99.90;;;;;;4952620;28;20566;-84
2022/11/18 13:30:24;;;;;;;14.10;2.50;;;13.30;99.90;;;;;;4952663;29;20571;-84
2022/11/18 13:32:52;;;;;;;9.52;2.60;;;13.30;99.90;;;;;;4952216;29;20521;-85